Time;durP1;ratioP1;P1;durP2;ratioP2;P2;SDS_P1;SDS_P2;PMS_P1;PMS_P2;Temp;Humidity;BMP_temperature;BMP_pressure;BME280_temperature;BME280_humidity;BME280_pressure;Samples;Min_cycle;Max_cycle;Signal;HPM_P1;HPM_P2
2024/02/17 00:00:53;;;;;;;27.13;9.32;;;9.80;99.90;;;;;;5062582;28;20017;-71
2024/02/17 00:03:22;;;;;;;20.30;9.25;;;9.80;99.90;;;;;;5061758;28;20029;-69
2024/02/17 00:05:52;;;;;;;21.48;9.43;;;9.80;99.90;;;;;;5061787;28;20040;-70
2024/02/17 00:08:17;;;;;;;21.73;9.20;;;9.80;99.90;;;;;;5061795;28;20025;-73
2024/02/17 00:10:43;;;;;;;16.88;8.27;;;9.80;99.90;;;;;;5061613;28;20041;-70
2024/02/17 00:13:09;;;;;;;19.60;9.00;;;9.70;99.90;;;;;;5060152;28;20123;-68
2024/02/17 00:15:34;;;;;;;20.52;9.20;;;9.80;99.90;;;;;;5061824;28;20021;-69
2024/02/17 00:18:02;;;;;;;17.25;9.02;;;9.80;99.90;;;;;;5062404;28;20029;-70
2024/02/17 00:20:27;;;;;;;18.80;9.23;;;9.80;99.90;;;;;;5062900;28;20043;-69
2024/02/17 00:22:53;;;;;;;21.25;9.65;;;9.80;99.90;;;;;;5062294;28;20025;-68
2024/02/17 00:25:19;;;;;;;22.17;9.45;;;9.80;99.90;;;;;;5060752;28;20076;-71
2024/02/17 00:27:45;;;;;;;18.48;8.80;;;9.80;99.90;;;;;;5062187;28;20078;-71
2024/02/17 00:30:11;;;;;;;19.23;9.63;;;9.80;99.90;;;;;;5061370;28;20071;-70
2024/02/17 00:32:37;;;;;;;19.77;9.95;;;9.80;99.90;;;;;;5061925;28;20032;-70
2024/02/17 00:35:03;;;;;;;24.58;9.63;;;9.70;99.90;;;;;;5060886;28;20025;-71
2024/02/17 00:37:28;;;;;;;19.20;8.95;;;9.70;99.90;;;;;;5060195;28;20036;-69
2024/02/17 00:39:54;;;;;;;20.95;9.23;;;9.70;99.90;;;;;;5062038;28;20531;-72
2024/02/17 00:42:19;;;;;;;19.67;8.75;;;9.70;99.90;;;;;;5062125;28;20025;-69
2024/02/17 00:44:45;;;;;;;24.02;9.30;;;9.70;99.90;;;;;;5061626;28;20032;-70
2024/02/17 00:47:10;;;;;;;21.33;10.48;;;9.70;99.90;;;;;;5060265;28;20029;-69
2024/02/17 00:49:36;;;;;;;21.70;10.50;;;9.70;99.90;;;;;;5061454;28;20036;-69
2024/02/17 00:52:02;;;;;;;29.20;12.93;;;9.70;99.90;;;;;;5061305;28;20460;-69
2024/02/17 00:54:28;;;;;;;22.63;10.93;;;9.60;99.90;;;;;;5060355;28;20036;-69
2024/02/17 00:56:53;;;;;;;18.60;9.07;;;9.70;99.90;;;;;;5061937;28;20033;-70
2024/02/17 00:59:19;;;;;;;18.60;8.68;;;9.60;99.90;;;;;;5061602;28;20025;-69
2024/02/17 01:01:44;;;;;;;16.23;8.52;;;9.60;99.90;;;;;;5063173;28;20056;-69
2024/02/17 01:04:10;;;;;;;20.90;9.80;;;9.60;99.90;;;;;;5065141;28;20037;-69
2024/02/17 01:06:35;;;;;;;17.45;8.77;;;9.60;99.90;;;;;;5064961;28;20053;-69
2024/02/17 01:09:01;;;;;;;19.58;9.35;;;9.60;99.90;;;;;;5066037;28;20025;-68
2024/02/17 01:11:27;;;;;;;20.05;9.23;;;9.60;99.90;;;;;;5066116;28;20477;-68
2024/02/17 01:13:53;;;;;;;22.23;9.35;;;9.60;99.90;;;;;;5065773;28;20035;-69
2024/02/17 01:16:18;;;;;;;19.85;9.70;;;9.50;99.90;;;;;;5066111;28;20028;-70
2024/02/17 01:18:44;;;;;;;19.25;9.10;;;9.50;99.90;;;;;;5065892;28;20466;-69
2024/02/17 01:21:09;;;;;;;23.52;9.65;;;9.50;99.90;;;;;;5065586;28;20021;-69
2024/02/17 01:23:35;;;;;;;25.40;10.02;;;9.60;99.90;;;;;;5064305;28;20029;-70
2024/02/17 01:26:01;;;;;;;21.30;9.98;;;9.50;99.90;;;;;;5063442;28;20036;-69
2024/02/17 01:28:26;;;;;;;23.15;10.95;;;9.50;99.90;;;;;;5063378;28;20029;-69
2024/02/17 01:30:52;;;;;;;21.35;9.45;;;9.50;99.90;;;;;;5064245;28;20040;-68
2024/02/17 01:33:18;;;;;;;19.90;9.40;;;9.50;99.90;;;;;;5060974;28;20052;-69
2024/02/17 01:35:43;;;;;;;24.30;9.85;;;9.50;99.90;;;;;;5063780;28;20021;-68
2024/02/17 01:38:09;;;;;;;20.67;9.10;;;9.50;99.90;;;;;;5064261;28;21034;-68
2024/02/17 01:40:35;;;;;;;23.77;9.02;;;9.40;99.90;;;;;;5065361;28;20029;-70
2024/02/17 01:43:00;;;;;;;24.02;9.07;;;9.40;99.90;;;;;;5063887;28;20035;-69
2024/02/17 01:45:26;;;;;;;23.55;9.52;;;9.40;99.90;;;;;;5065510;28;20052;-69
2024/02/17 01:47:55;;;;;;;22.52;9.18;;;9.40;99.90;;;;;;5065196;28;20051;-68
2024/02/17 01:50:21;;;;;;;19.67;8.90;;;9.40;99.90;;;;;;5064407;28;20324;-69
2024/02/17 01:52:47;;;;;;;25.85;10.13;;;9.40;99.90;;;;;;5063868;28;20559;-68
2024/02/17 01:55:14;;;;;;;20.45;9.35;;;9.40;99.90;;;;;;5064936;28;20017;-68
2024/02/17 01:57:41;;;;;;;27.23;10.18;;;9.40;99.90;;;;;;5064859;28;20025;-69
2024/02/17 02:00:09;;;;;;;20.70;8.85;;;9.40;99.90;;;;;;5065580;28;20017;-68
2024/02/17 02:02:37;;;;;;;21.45;8.73;;;9.40;99.90;;;;;;5064612;28;20025;-68
2024/02/17 02:05:03;;;;;;;23.15;8.88;;;9.30;99.90;;;;;;5065052;28;20040;-69
2024/02/17 02:07:29;;;;;;;22.52;9.57;;;9.30;99.90;;;;;;5062639;28;20076;-67
2024/02/17 02:09:54;;;;;;;21.75;10.15;;;9.40;99.90;;;;;;5064671;28;20037;-68
2024/02/17 02:12:22;;;;;;;27.58;10.18;;;9.30;99.90;;;;;;5064589;28;20029;-69
2024/02/17 02:15:02;;;;;;;26.50;9.48;;;9.30;99.90;;;;;;5064827;28;20350;-68
2024/02/17 02:17:28;;;;;;;24.70;9.77;;;9.30;99.90;;;;;;5064094;28;20025;-68
2024/02/17 02:19:54;;;;;;;22.58;8.45;;;9.30;99.90;;;;;;5063459;28;20384;-69
2024/02/17 02:22:20;;;;;;;20.67;8.55;;;9.20;99.90;;;;;;5064709;28;20044;-70
2024/02/17 02:24:48;;;;;;;22.92;9.57;;;9.20;99.90;;;;;;5062852;28;20049;-69
2024/02/17 02:27:13;;;;;;;23.63;8.57;;;9.30;99.90;;;;;;5064092;28;20021;-68
2024/02/17 02:29:45;;;;;;;17.85;8.52;;;9.20;99.90;;;;;;5064336;28;20044;-67
2024/02/17 02:32:10;;;;;;;24.95;9.38;;;9.20;99.90;;;;;;5064022;28;20031;-69
2024/02/17 02:34:36;;;;;;;19.45;8.88;;;9.20;99.90;;;;;;5064175;28;20049;-66
2024/02/17 02:37:02;;;;;;;20.50;8.98;;;9.20;99.90;;;;;;5063601;28;20021;-69
2024/02/17 02:39:28;;;;;;;22.52;8.18;;;9.10;99.90;;;;;;5064341;28;20033;-69
2024/02/17 02:41:53;;;;;;;20.85;8.75;;;9.10;99.90;;;;;;5063332;28;20029;-68
2024/02/17 02:44:19;;;;;;;18.25;7.57;;;9.10;99.90;;;;;;5063312;28;20029;-68
2024/02/17 02:46:44;;;;;;;25.70;6.97;;;9.10;99.90;;;;;;5063572;28;20501;-69
2024/02/17 02:49:10;;;;;;;15.43;6.75;;;9.00;99.90;;;;;;5062391;28;20024;-69
2024/02/17 02:51:35;;;;;;;19.50;6.85;;;9.00;99.90;;;;;;5062574;28;20051;-70
2024/02/17 02:54:01;;;;;;;21.55;7.25;;;9.00;99.90;;;;;;5062386;28;20496;-70
2024/02/17 02:56:26;;;;;;;12.18;5.13;;;9.00;99.90;;;;;;5062265;28;20021;-67
2024/02/17 02:58:52;;;;;;;8.50;3.35;;;9.00;99.90;;;;;;5063336;28;20021;-71
2024/02/17 03:01:17;;;;;;;8.20;3.65;;;9.00;99.90;;;;;;5063672;28;20033;-69
2024/02/17 03:03:46;;;;;;;12.77;4.05;;;9.00;99.90;;;;;;5063475;28;20096;-67
2024/02/17 03:06:11;;;;;;;8.30;3.50;;;8.90;99.90;;;;;;5062264;28;20041;-69
2024/02/17 03:08:37;;;;;;;8.30;3.58;;;8.90;99.90;;;;;;5062238;28;20112;-69
2024/02/17 03:11:03;;;;;;;8.70;3.50;;;8.90;99.90;;;;;;5062625;28;20033;-69
2024/02/17 03:13:28;;;;;;;11.20;4.07;;;8.90;99.90;;;;;;5063170;28;20044;-69
2024/02/17 03:15:54;;;;;;;10.55;3.80;;;8.90;99.90;;;;;;5063550;28;20377;-68
2024/02/17 03:18:20;;;;;;;9.93;3.58;;;8.90;99.90;;;;;;5063401;28;20017;-69
2024/02/17 03:20:45;;;;;;;9.90;3.92;;;8.90;99.90;;;;;;5062750;28;20730;-69
2024/02/17 03:23:11;;;;;;;11.73;3.63;;;8.80;99.90;;;;;;5061971;28;20029;-68
2024/02/17 03:25:36;;;;;;;13.25;4.05;;;8.80;99.90;;;;;;5062288;28;20032;-68
2024/02/17 03:28:02;;;;;;;9.18;3.65;;;8.80;99.90;;;;;;5062835;28;20029;-70
2024/02/17 03:30:28;;;;;;;6.15;3.17;;;8.80;99.90;;;;;;5063112;28;20036;-68
2024/02/17 03:32:54;;;;;;;6.75;2.80;;;8.80;99.90;;;;;;5061667;28;20033;-70
2024/02/17 03:35:20;;;;;;;10.30;2.80;;;8.70;99.90;;;;;;5061463;28;20025;-69
2024/02/17 03:37:45;;;;;;;5.00;2.45;;;8.70;99.90;;;;;;5063011;28;20033;-67
2024/02/17 03:40:11;;;;;;;10.40;3.25;;;8.70;99.90;;;;;;5062872;28;20029;-68
2024/02/17 03:42:37;;;;;;;11.82;2.58;;;8.70;99.90;;;;;;5060999;28;20024;-69
2024/02/17 03:45:02;;;;;;;11.38;2.58;;;8.70;99.90;;;;;;5062984;28;20021;-70
2024/02/17 03:47:28;;;;;;;7.50;2.28;;;8.70;99.90;;;;;;5062906;28;20029;-69
2024/02/17 03:49:54;;;;;;;6.38;2.10;;;8.60;99.90;;;;;;5060489;28;20179;-70
2024/02/17 03:52:19;;;;;;;6.32;1.98;;;8.60;99.90;;;;;;5062667;28;20032;-67
2024/02/17 03:54:45;;;;;;;6.68;2.08;;;8.60;99.90;;;;;;5062240;28;20020;-68
2024/02/17 03:57:10;;;;;;;7.63;1.83;;;8.60;99.90;;;;;;5062479;28;20029;-69
2024/02/17 03:59:36;;;;;;;4.97;2.10;;;8.60;99.90;;;;;;5062568;28;21458;-69
2024/02/17 04:02:02;;;;;;;10.57;2.75;;;8.60;99.90;;;;;;5062471;28;20036;-69
2024/02/17 04:04:27;;;;;;;8.32;2.70;;;8.60;99.90;;;;;;5062290;28;20031;-69
2024/02/17 04:06:53;;;;;;;8.70;2.90;;;8.60;99.90;;;;;;5061735;28;20068;-67
2024/02/17 04:09:18;;;;;;;10.90;3.00;;;8.50;99.90;;;;;;5062224;28;20032;-71
2024/02/17 04:11:44;;;;;;;8.57;3.20;;;8.50;99.90;;;;;;5062133;28;20829;-69
2024/02/17 04:14:11;;;;;;;10.65;3.08;;;8.40;99.90;;;;;;5062566;28;20056;-68
2024/02/17 04:16:36;;;;;;;14.98;4.15;;;8.40;99.90;;;;;;5062595;28;20029;-68
2024/02/17 04:19:02;;;;;;;11.75;4.10;;;8.40;99.90;;;;;;5062772;28;20032;-67
2024/02/17 04:21:27;;;;;;;7.10;2.83;;;8.40;99.90;;;;;;5062454;28;20032;-69
2024/02/17 04:23:53;;;;;;;7.65;3.25;;;8.40;99.90;;;;;;5061862;28;20013;-70
2024/02/17 04:26:18;;;;;;;6.05;2.63;;;8.40;99.90;;;;;;5061921;28;20024;-70
2024/02/17 04:28:45;;;;;;;11.55;3.33;;;8.40;99.90;;;;;;5060737;28;20028;-68
2024/02/17 04:31:11;;;;;;;8.80;2.92;;;8.40;99.90;;;;;;5058933;28;20104;-70
2024/02/17 04:33:39;;;;;;;11.52;2.90;;;8.40;99.90;;;;;;5062223;28;20060;-70
2024/02/17 04:36:06;;;;;;;10.00;2.85;;;8.40;99.90;;;;;;5062094;28;20029;-70
2024/02/17 04:38:32;;;;;;;10.68;2.65;;;8.30;99.90;;;;;;5061084;28;20036;-70
2024/02/17 04:40:57;;;;;;;11.50;2.63;;;8.30;99.90;;;;;;5062034;28;20021;-70
2024/02/17 04:43:23;;;;;;;7.10;2.70;;;8.30;99.90;;;;;;5062087;28;20029;-70
2024/02/17 04:45:49;;;;;;;6.53;2.45;;;8.30;99.90;;;;;;5061368;28;20047;-68
2024/02/17 04:48:15;;;;;;;10.77;2.85;;;8.30;99.90;;;;;;5061844;28;20377;-69
2024/02/17 04:50:41;;;;;;;10.52;2.80;;;8.30;99.90;;;;;;5059447;28;20040;-68
2024/02/17 04:53:06;;;;;;;11.55;3.47;;;8.30;99.90;;;;;;5060124;28;20036;-68
2024/02/17 04:55:33;;;;;;;10.35;3.05;;;8.30;99.90;;;;;;5060643;28;20027;-72
2024/02/17 04:57:58;;;;;;;9.65;2.40;;;8.30;99.90;;;;;;5061170;28;20042;-71
2024/02/17 05:00:24;;;;;;;5.88;2.50;;;8.30;99.90;;;;;;5061741;28;20521;-69
2024/02/17 05:02:50;;;;;;;9.85;2.47;;;8.30;99.90;;;;;;5060291;28;20088;-69
2024/02/17 05:05:16;;;;;;;7.45;1.90;;;8.20;99.90;;;;;;5060559;28;20517;-69
2024/02/17 05:07:46;;;;;;;8.38;2.30;;;8.20;99.90;;;;;;5058659;28;20072;-70
2024/02/17 05:10:12;;;;;;;8.30;2.05;;;8.20;99.90;;;;;;5060513;28;20037;-69
2024/02/17 05:12:37;;;;;;;6.13;2.10;;;8.20;99.90;;;;;;5058940;28;20075;-69
2024/02/17 05:15:03;;;;;;;5.88;1.90;;;8.20;99.90;;;;;;5058924;28;20052;-70
2024/02/17 05:17:30;;;;;;;6.93;2.15;;;8.20;99.90;;;;;;5058860;28;20017;-69
2024/02/17 05:19:56;;;;;;;6.22;1.80;;;8.20;99.90;;;;;;5060767;28;20029;-71
2024/02/17 05:22:22;;;;;;;5.70;1.95;;;8.10;99.90;;;;;;5061122;28;20025;-69
2024/02/17 05:24:48;;;;;;;4.68;1.90;;;8.10;99.90;;;;;;5061071;28;20036;-68
2024/02/17 05:27:13;;;;;;;7.00;2.30;;;8.10;99.90;;;;;;5061066;28;20025;-68
2024/02/17 05:29:39;;;;;;;4.18;2.20;;;8.10;99.90;;;;;;5052087;28;20021;-68
2024/02/17 05:32:06;;;;;;;6.72;2.03;;;8.10;99.90;;;;;;5058010;28;20049;-68
2024/02/17 05:34:32;;;;;;;7.78;2.95;;;8.10;99.90;;;;;;5051832;28;20029;-67
2024/02/17 05:36:57;;;;;;;6.25;2.20;;;8.00;99.90;;;;;;5057901;28;20128;-69
2024/02/17 05:39:23;;;;;;;8.98;2.45;;;8.00;99.90;;;;;;5058418;28;20037;-68
2024/02/17 05:41:51;;;;;;;6.90;2.28;;;8.00;99.90;;;;;;5061375;28;20061;-67
2024/02/17 05:44:16;;;;;;;10.07;2.47;;;7.90;99.90;;;;;;5059742;28;20025;-69
2024/02/17 05:46:42;;;;;;;6.53;2.40;;;7.90;99.90;;;;;;5060874;28;20027;-69
2024/02/17 05:49:08;;;;;;;8.93;2.35;;;7.80;99.90;;;;;;5063784;28;20021;-69
2024/02/17 05:51:34;;;;;;;7.07;2.33;;;7.70;99.90;;;;;;5064906;28;20033;-68
2024/02/17 05:53:59;;;;;;;5.85;1.50;;;7.60;99.90;;;;;;5064908;28;20029;-67
2024/02/17 05:56:25;;;;;;;6.53;1.60;;;7.60;99.90;;;;;;5059590;28;20064;-69
2024/02/17 05:58:50;;;;;;;9.00;2.05;;;7.60;99.90;;;;;;5062761;28;20060;-67
2024/02/17 06:01:16;;;;;;;5.78;1.85;;;7.50;99.90;;;;;;5063945;28;20112;-69
2024/02/17 06:03:42;;;;;;;6.78;1.73;;;7.40;99.90;;;;;;5064760;28;20148;-68
2024/02/17 06:06:07;;;;;;;4.38;2.00;;;7.50;99.90;;;;;;5064090;28;20048;-69
2024/02/17 06:08:33;;;;;;;8.25;1.70;;;7.50;99.90;;;;;;5061388;28;20037;-68
2024/02/17 06:10:58;;;;;;;8.27;1.90;;;7.40;99.90;;;;;;5064859;28;20203;-68
2024/02/17 06:13:24;;;;;;;4.78;1.33;;;7.40;99.90;;;;;;5065539;28;20086;-68
2024/02/17 06:15:50;;;;;;;4.72;1.20;;;7.40;99.90;;;;;;5063258;28;20027;-68
2024/02/17 06:21:13;;;;;;;3.78;1.33;;;7.40;99.90;;;;;;5061773;28;20029;-70
2024/02/17 06:23:43;;;;;;;2.92;0.80;;;7.40;99.90;;;;;;5064791;28;20021;-69
2024/02/17 06:26:26;;;;;;;4.88;1.38;;;7.30;99.90;;;;;;5064551;28;20040;-69
2024/02/17 06:28:53;;;;;;;2.92;0.93;;;7.30;99.90;;;;;;5063448;28;20103;-67
2024/02/17 06:31:19;;;;;;;7.97;1.00;;;7.40;99.90;;;;;;5063798;28;20538;-70
2024/02/17 06:33:44;;;;;;;3.03;0.82;;;7.40;99.90;;;;;;5063227;28;20044;-69
2024/02/17 06:36:10;;;;;;;3.25;1.10;;;7.40;99.90;;;;;;5062148;28;20021;-69
2024/02/17 06:38:36;;;;;;;6.10;1.10;;;7.40;99.90;;;;;;5060677;28;20032;-69
2024/02/17 06:41:02;;;;;;;2.85;1.10;;;7.30;99.90;;;;;;5062283;28;20084;-67
2024/02/17 06:43:31;;;;;;;4.18;1.25;;;7.40;99.90;;;;;;5059670;28;20029;-68
2024/02/17 06:45:58;;;;;;;5.05;1.05;;;7.40;99.90;;;;;;5061670;28;20029;-69
2024/02/17 06:48:25;;;;;;;3.70;0.98;;;7.40;99.90;;;;;;5063167;28;20028;-68
2024/02/17 06:50:51;;;;;;;2.45;0.98;;;7.40;99.90;;;;;;5063242;28;20097;-68
2024/02/17 06:53:17;;;;;;;2.78;1.10;;;7.40;99.90;;;;;;5062165;28;20057;-68
2024/02/17 06:55:42;;;;;;;5.78;1.10;;;7.30;99.90;;;;;;5062150;28;20021;-70
2024/02/17 06:58:08;;;;;;;3.75;0.73;;;7.40;99.90;;;;;;5063145;28;20072;-69
2024/02/17 07:00:33;;;;;;;6.13;0.93;;;7.40;99.90;;;;;;5061752;28;20033;-70
2024/02/17 07:03:03;;;;;;;3.70;0.82;;;7.30;99.90;;;;;;5062594;28;20112;-69
2024/02/17 07:05:29;;;;;;;4.07;0.80;;;7.30;99.90;;;;;;5063604;28;20375;-69
2024/02/17 07:07:54;;;;;;;2.45;0.50;;;7.40;99.90;;;;;;5063708;28;20049;-68
2024/02/17 07:10:20;;;;;;;6.18;0.80;;;7.40;99.90;;;;;;5064303;28;20052;-69
2024/02/17 07:12:45;;;;;;;2.65;0.63;;;7.40;99.90;;;;;;5064224;28;20017;-68
2024/02/17 07:15:11;;;;;;;2.15;0.77;;;7.40;99.90;;;;;;5062475;28;20021;-70
2024/02/17 07:17:36;;;;;;;1.90;0.65;;;7.40;99.90;;;;;;5063711;28;20021;-69
2024/02/17 07:20:04;;;;;;;2.97;0.80;;;7.30;99.90;;;;;;5063383;28;20033;-70
2024/02/17 07:22:29;;;;;;;3.90;0.85;;;7.40;99.90;;;;;;5063219;28;20021;-69
2024/02/17 07:24:55;;;;;;;7.50;1.15;;;7.40;99.90;;;;;;5062971;28;20116;-70
2024/02/17 07:27:20;;;;;;;4.28;1.10;;;7.30;99.90;;;;;;5063554;28;20025;-70
2024/02/17 07:29:46;;;;;;;4.22;1.00;;;7.40;99.90;;;;;;5063642;28;20035;-70
2024/02/17 07:32:12;;;;;;;3.80;0.88;;;7.30;99.90;;;;;;5061712;28;20048;-69
2024/02/17 07:34:39;;;;;;;5.43;1.30;;;7.40;99.90;;;;;;5063626;28;20009;-69
2024/02/17 07:37:05;;;;;;;8.30;1.00;;;7.40;99.90;;;;;;5062882;28;20028;-69
2024/02/17 07:39:30;;;;;;;4.47;0.80;;;7.40;99.90;;;;;;5063717;28;20049;-71
2024/02/17 07:41:56;;;;;;;2.80;0.80;;;7.40;99.90;;;;;;5059397;28;20025;-71
2024/02/17 07:44:23;;;;;;;5.63;1.20;;;7.30;99.90;;;;;;5059779;28;20025;-70
2024/02/17 07:46:49;;;;;;;4.63;0.88;;;7.30;99.90;;;;;;5061934;28;20021;-67
2024/02/17 07:49:17;;;;;;;6.45;1.67;;;7.30;99.90;;;;;;5060987;28;20021;-70
2024/02/17 07:51:45;;;;;;;4.03;1.00;;;7.30;99.90;;;;;;5063093;28;20067;-69
2024/02/17 07:54:11;;;;;;;6.18;1.38;;;7.30;99.90;;;;;;5062616;28;20032;-69
2024/02/17 07:56:37;;;;;;;6.15;0.90;;;7.40;99.90;;;;;;5059504;28;20107;-70
2024/02/17 07:59:03;;;;;;;3.90;0.68;;;7.40;99.90;;;;;;5061080;28;20037;-69
2024/02/17 08:01:29;;;;;;;4.32;0.50;;;7.30;99.90;;;;;;5060271;28;20056;-69
2024/02/17 08:03:55;;;;;;;10.57;1.13;;;7.30;99.90;;;;;;5056897;28;20025;-68
2024/02/17 08:06:21;;;;;;;2.85;0.43;;;7.30;99.90;;;;;;5059865;28;20098;-69
2024/02/17 08:08:47;;;;;;;5.78;1.00;;;7.30;99.90;;;;;;5060586;28;20028;-70
2024/02/17 08:11:13;;;;;;;5.63;0.85;;;7.50;99.90;;;;;;5060393;28;20091;-69
2024/02/17 08:13:39;;;;;;;4.15;0.75;;;7.70;99.90;;;;;;5062660;28;20078;-68
2024/02/17 08:16:05;;;;;;;6.22;0.82;;;7.80;99.90;;;;;;5060834;28;20026;-69
2024/02/17 08:18:31;;;;;;;4.13;0.80;;;7.90;99.90;;;;;;5060972;28;20017;-71
2024/02/17 08:20:58;;;;;;;4.88;0.68;;;7.90;99.90;;;;;;5059248;28;20040;-70
2024/02/17 08:23:28;;;;;;;5.70;0.60;;;7.90;99.90;;;;;;5059441;28;20492;-71
2024/02/17 08:25:57;;;;;;;8.68;1.10;;;7.80;99.90;;;;;;5061922;28;20070;-69
2024/02/17 08:28:22;;;;;;;10.50;1.00;;;7.90;99.90;;;;;;5059978;28;20035;-69
2024/02/17 08:30:51;;;;;;;5.63;0.82;;;7.80;99.90;;;;;;5060459;28;20096;-71
2024/02/17 08:33:17;;;;;;;5.75;0.88;;;7.80;99.90;;;;;;5060433;28;20032;-69
2024/02/17 08:35:44;;;;;;;8.85;1.02;;;7.90;99.90;;;;;;5059687;28;20052;-69
2024/02/17 08:38:13;;;;;;;13.02;1.77;;;7.90;99.90;;;;;;5060585;28;20021;-69
2024/02/17 08:40:39;;;;;;;10.70;1.17;;;7.90;99.90;;;;;;5060344;28;20044;-68
2024/02/17 08:43:08;;;;;;;5.35;0.80;;;7.90;99.90;;;;;;5062689;28;20017;-69
2024/02/17 08:45:34;;;;;;;9.45;1.05;;;7.90;99.90;;;;;;5060283;28;20032;-69
2024/02/17 08:47:59;;;;;;;17.70;1.60;;;7.80;99.90;;;;;;5062500;28;20028;-69
2024/02/17 08:50:25;;;;;;;9.40;1.00;;;7.80;99.90;;;;;;5061145;28;20055;-70
2024/02/17 08:52:50;;;;;;;10.20;1.38;;;7.70;99.90;;;;;;5061974;28;20033;-69
2024/02/17 08:55:16;;;;;;;10.88;1.35;;;7.80;99.90;;;;;;5060107;28;20025;-69
2024/02/17 08:57:42;;;;;;;16.02;1.63;;;7.70;99.90;;;;;;5058116;28;20048;-69
2024/02/17 09:00:08;;;;;;;9.13;1.20;;;7.70;99.90;;;;;;5061330;28;20048;-69
2024/02/17 09:02:34;;;;;;;19.52;1.95;;;7.70;99.90;;;;;;5062177;28;20051;-71
2024/02/17 09:05:01;;;;;;;11.10;1.55;;;7.70;99.90;;;;;;5060687;28;20029;-69
2024/02/17 09:07:27;;;;;;;13.27;1.92;;;7.70;99.90;;;;;;5061519;28;20056;-69
2024/02/17 09:09:53;;;;;;;9.95;1.15;;;7.70;99.90;;;;;;5061048;28;20037;-69
2024/02/17 09:12:20;;;;;;;24.65;2.92;;;7.70;99.90;;;;;;5060238;28;20075;-70
2024/02/17 09:14:46;;;;;;;9.30;1.50;;;7.70;99.90;;;;;;5058872;28;20831;-70
2024/02/17 09:17:12;;;;;;;8.80;1.52;;;7.70;99.90;;;;;;5059516;28;20564;-69
2024/02/17 09:19:38;;;;;;;9.77;1.40;;;7.70;99.90;;;;;;5058394;28;20025;-71
2024/02/17 09:22:04;;;;;;;18.48;1.63;;;7.70;99.90;;;;;;5061983;28;20108;-70
2024/02/17 09:24:31;;;;;;;11.07;1.40;;;7.70;99.90;;;;;;5065733;28;20106;-68
2024/02/17 09:27:00;;;;;;;12.82;1.63;;;7.70;99.90;;;;;;5065229;28;20093;-68
2024/02/17 09:29:26;;;;;;;12.18;1.40;;;7.70;99.90;;;;;;5062936;28;20032;-69
2024/02/17 09:31:52;;;;;;;15.77;1.70;;;7.80;99.90;;;;;;5065497;28;20056;-68
2024/02/17 09:34:17;;;;;;;12.30;1.70;;;7.80;99.90;;;;;;5065653;28;20040;-68
2024/02/17 09:36:43;;;;;;;11.57;2.03;;;7.80;99.90;;;;;;5064796;28;20040;-68
2024/02/17 09:39:09;;;;;;;19.48;1.65;;;7.90;99.90;;;;;;5064479;28;20033;-70
2024/02/17 09:41:35;;;;;;;11.30;2.55;;;7.90;99.90;;;;;;5053124;28;22466;-68
2024/02/17 09:44:01;;;;;;;13.40;1.42;;;7.90;99.90;;;;;;5060324;28;20099;-70
2024/02/17 09:46:28;;;;;;;18.80;1.63;;;7.90;99.90;;;;;;5057233;28;20466;-68
2024/02/17 09:49:00;;;;;;;14.73;1.95;;;7.90;99.90;;;;;;5054811;28;20490;-67
2024/02/17 09:51:26;;;;;;;11.02;1.67;;;7.90;99.90;;;;;;5064625;28;20401;-69
2024/02/17 09:53:53;;;;;;;18.33;1.75;;;7.90;99.90;;;;;;5062191;28;20029;-68
2024/02/17 09:56:19;;;;;;;15.43;2.05;;;8.00;99.90;;;;;;5064943;28;20055;-70
2024/02/17 09:58:45;;;;;;;12.23;1.88;;;8.00;99.90;;;;;;5065895;28;20025;-70
2024/02/17 10:01:12;;;;;;;8.27;1.88;;;8.00;99.90;;;;;;5065235;28;20112;-68
2024/02/17 10:03:38;;;;;;;14.20;2.45;;;8.10;99.90;;;;;;5062048;28;20095;-70
2024/02/17 10:06:11;;;;;;;14.25;1.58;;;8.00;99.90;;;;;;5064827;28;20044;-69
2024/02/17 10:08:40;;;;;;;14.13;1.60;;;8.00;99.90;;;;;;5064802;28;20060;-68
2024/02/17 10:11:09;;;;;;;13.15;1.92;;;8.00;99.90;;;;;;5064007;28;20044;-70
2024/02/17 10:13:34;;;;;;;15.75;1.73;;;8.00;99.90;;;;;;5064694;28;20050;-70
2024/02/17 10:16:00;;;;;;;12.60;2.50;;;8.00;99.90;;;;;;5064881;28;20028;-68
2024/02/17 10:18:25;;;;;;;12.02;1.95;;;8.10;99.90;;;;;;5065194;28;20029;-69
2024/02/17 10:20:55;;;;;;;17.58;2.47;;;8.10;99.90;;;;;;5065066;28;20055;-69
2024/02/17 10:23:22;;;;;;;12.93;1.92;;;8.20;99.90;;;;;;5062865;28;20032;-69
2024/02/17 10:25:47;;;;;;;13.02;2.17;;;8.10;99.90;;;;;;5064910;28;20955;-68
2024/02/17 10:28:13;;;;;;;14.38;2.05;;;8.20;99.90;;;;;;5063333;28;20075;-70
2024/02/17 10:30:39;;;;;;;11.57;1.73;;;8.30;99.90;;;;;;5064401;28;20092;-69
2024/02/17 10:33:13;;;;;;;16.77;2.38;;;8.30;99.90;;;;;;5063388;28;20033;-70
2024/02/17 10:35:39;;;;;;;;;;;8.30;99.90;;;;;;5064190;28;20021;-70
2024/02/17 10:38:07;;;;;;;11.07;1.98;;;8.30;99.90;;;;;;5063644;28;19935;-71
2024/02/17 10:40:34;;;;;;;11.27;1.45;;;8.30;99.90;;;;;;5063475;28;20020;-69
2024/02/17 10:42:59;;;;;;;16.95;1.90;;;8.30;99.90;;;;;;5062078;28;20043;-72
2024/02/17 10:45:25;;;;;;;13.73;1.50;;;8.30;99.90;;;;;;5063660;28;20044;-69
2024/02/17 10:47:59;;;;;;;12.20;1.50;;;8.30;99.90;;;;;;5078629;28;20498;-71
2024/02/17 10:50:24;;;;;;;18.83;1.75;;;8.20;99.90;;;;;;5062970;28;20051;-72
2024/02/17 10:53:06;;;;;;;13.52;1.67;;;8.30;99.90;;;;;;5062149;28;20056;-70
2024/02/17 10:55:37;;;;;;;13.05;1.75;;;8.30;99.90;;;;;;5063064;28;20053;-69
2024/02/17 10:58:03;;;;;;;16.70;1.80;;;8.40;99.90;;;;;;5064016;28;20021;-69
2024/02/17 11:00:31;;;;;;;10.40;1.80;;;8.40;99.90;;;;;;5064213;28;20175;-69
2024/02/17 11:03:05;;;;;;;16.98;1.88;;;8.40;99.90;;;;;;5064505;28;20108;-68
2024/02/17 11:05:36;;;;;;;15.68;1.92;;;8.50;99.90;;;;;;5063885;28;20078;-69
2024/02/17 11:08:03;;;;;;;15.07;1.60;;;8.60;99.90;;;;;;5062269;28;20098;-69
2024/02/17 11:10:30;;;;;;;18.70;2.55;;;8.70;99.90;;;;;;5059022;28;20044;-69
2024/02/17 11:12:56;;;;;;;13.88;1.70;;;8.90;99.90;;;;;;5055508;28;20056;-68
2024/02/17 11:15:22;;;;;;;13.80;1.60;;;9.40;99.90;;;;;;5055004;28;20029;-70
2024/02/17 11:17:53;;;;;;;13.30;1.67;;;9.90;99.90;;;;;;5063574;28;20028;-68
2024/02/17 11:20:20;;;;;;;14.98;2.08;;;10.10;99.90;;;;;;5061923;28;20017;-71
2024/02/17 11:22:52;;;;;;;13.77;1.92;;;10.10;99.90;;;;;;5053621;28;20512;-70
2024/02/17 11:25:33;;;;;;;13.23;2.00;;;10.10;99.90;;;;;;5059185;28;20024;-69
2024/02/17 11:28:00;;;;;;;14.38;1.70;;;10.00;99.90;;;;;;5057167;28;20055;-70
2024/02/17 11:30:26;;;;;;;10.45;1.75;;;9.90;99.90;;;;;;5062202;28;20053;-70
2024/02/17 11:33:04;;;;;;;12.70;1.83;;;9.70;99.90;;;;;;5062667;28;20032;-71
2024/02/17 11:35:31;;;;;;;18.40;2.35;;;9.70;99.90;;;;;;5062579;28;20025;-69
2024/02/17 11:37:56;;;;;;;14.27;2.45;;;9.60;99.90;;;;;;5063301;28;20024;-69
2024/02/17 11:40:24;;;;;;;20.83;3.10;;;9.70;99.90;;;;;;5062559;28;20246;-69
2024/02/17 11:42:54;;;;;;;11.02;1.92;;;9.60;99.90;;;;;;5062208;28;20021;-69
2024/02/17 11:45:20;;;;;;;11.45;1.63;;;9.50;99.90;;;;;;5061837;28;20116;-69
2024/02/17 11:47:45;;;;;;;14.63;1.95;;;9.40;99.90;;;;;;5062980;28;20512;-71
2024/02/17 11:50:11;;;;;;;11.48;1.80;;;9.40;99.90;;;;;;5063311;28;20402;-69
2024/02/17 11:52:41;;;;;;;12.57;1.92;;;9.40;99.90;;;;;;5061105;28;20029;-69
2024/02/17 11:55:07;;;;;;;12.23;1.92;;;9.40;99.90;;;;;;5062929;28;20536;-69
2024/02/17 11:57:33;;;;;;;19.17;2.08;;;9.40;99.90;;;;;;5062795;28;20017;-69
2024/02/17 11:59:58;;;;;;;11.88;2.60;;;9.50;99.90;;;;;;5061955;28;20110;-70
2024/02/17 12:02:26;;;;;;;12.95;2.05;;;9.70;99.90;;;;;;5063262;28;20033;-68
2024/02/17 12:04:52;;;;;;;14.02;2.25;;;9.80;99.90;;;;;;5059080;28;20025;-69
2024/02/17 12:07:17;;;;;;;12.25;1.83;;;9.80;99.90;;;;;;5059100;28;20037;-69
2024/02/17 12:09:44;;;;;;;16.92;2.25;;;9.80;99.90;;;;;;5061025;28;20033;-68
2024/02/17 12:12:09;;;;;;;13.45;1.98;;;9.80;99.90;;;;;;5055628;28;20497;-70
2024/02/17 12:14:35;;;;;;;10.77;1.75;;;9.80;99.90;;;;;;5057395;28;20106;-69
2024/02/17 12:17:01;;;;;;;11.25;1.73;;;9.80;99.90;;;;;;5061938;28;20064;-69
2024/02/17 12:19:27;;;;;;;14.25;2.00;;;9.80;99.90;;;;;;5059458;28;20032;-69
2024/02/17 12:21:53;;;;;;;11.68;1.88;;;9.80;99.90;;;;;;5057601;28;20381;-71
2024/02/17 12:24:19;;;;;;;13.43;2.05;;;9.80;99.90;;;;;;5061982;28;20025;-70
2024/02/17 12:26:45;;;;;;;14.23;2.30;;;9.80;99.90;;;;;;5062356;28;20055;-70
2024/02/17 12:29:10;;;;;;;9.38;2.00;;;9.80;99.90;;;;;;5057947;28;20049;-70
2024/02/17 12:31:36;;;;;;;15.93;2.22;;;9.70;99.90;;;;;;5062198;28;20098;-70
2024/02/17 12:34:02;;;;;;;17.88;1.90;;;9.70;99.90;;;;;;5061845;28;20024;-69
2024/02/17 12:36:28;;;;;;;17.38;3.10;;;9.60;99.90;;;;;;5062668;28;20048;-68
2024/02/17 12:39:04;;;;;;;11.30;1.95;;;9.50;99.90;;;;;;5059615;28;20025;-68
2024/02/17 12:41:30;;;;;;;10.65;1.77;;;9.50;99.90;;;;;;5059427;28;20037;-69
2024/02/17 12:43:56;;;;;;;16.27;1.90;;;9.60;99.90;;;;;;5061386;28;20032;-71
2024/02/17 12:46:24;;;;;;;15.77;2.45;;;9.80;99.90;;;;;;5061369;28;20124;-70
2024/02/17 12:48:50;;;;;;;13.75;2.10;;;9.80;99.90;;;;;;5059753;28;20585;-69